Terminal Aerodrome Forecast
Issued by NWS

Home | Current Version | Previous Version | Text Only | Print | Product List | Glossary Off
Versions: 1 2 3 4 5 6 7 8 9 10 11 12 13 14 15 16 17

000
FTUS43 KICT 232337
TAFCNU
TAF
KCNU 232337Z 2400/2424 11009KT P6SM OVC028
     FM240800 14009KT P6SM VCTS OVC025CB
     FM241100 15013KT 3SM +TSRA OVC013CB
     FM241500 15013KT P6SM OVC015
     FM241700 17017G25KT P6SM OVC015=

USA.gov is the U.S. government's official web portal to all federal, state and local government web resources and services.